Time;durP1;ratioP1;P1;durP2;ratioP2;P2;SDS_P1;SDS_P2;PMS_P1;PMS_P2;Temp;Humidity;BMP_temperature;BMP_pressure;BME280_temperature;BME280_humidity;BME280_pressure;Samples;Min_cycle;Max_cycle;Signal;HPM_P1;HPM_P2
2023/06/15 00:02:31;;;;;;;4.75;3.03;;;23.00;56.10;;;;;;10066960;28;20116;-63
2023/06/15 00:07:22;;;;;;;4.43;3.00;;;22.90;56.20;;;;;;10067425;28;20022;-62
2023/06/15 00:12:12;;;;;;;3.95;2.42;;;22.70;56.70;;;;;;10067591;28;20091;-61
2023/06/15 00:17:03;;;;;;;3.25;2.35;;;22.80;56.60;;;;;;10067215;28;20036;-63
2023/06/15 00:21:54;;;;;;;3.15;2.30;;;23.00;56.50;;;;;;10067413;28;20495;-61
2023/06/15 00:26:45;;;;;;;4.57;2.67;;;22.70;56.90;;;;;;10065655;28;20029;-63
2023/06/15 00:31:35;;;;;;;7.97;3.15;;;22.60;57.10;;;;;;10065143;28;20033;-62
2023/06/15 00:36:26;;;;;;;5.22;3.35;;;22.50;57.30;;;;;;10064268;28;20450;-64
2023/06/15 00:41:17;;;;;;;4.90;3.50;;;22.40;57.60;;;;;;10065816;28;20044;-62
2023/06/15 00:46:08;;;;;;;3.05;2.15;;;22.50;57.30;;;;;;10066073;28;20108;-61
2023/06/15 00:50:59;;;;;;;3.22;2.40;;;22.40;57.70;;;;;;10060471;28;20030;-65
2023/06/15 00:55:51;;;;;;;3.78;2.42;;;22.30;58.10;;;;;;10059659;28;20038;-62
2023/06/15 01:00:41;;;;;;;3.85;2.10;;;22.30;57.90;;;;;;10060431;28;20052;-64
2023/06/15 01:05:36;;;;;;;3.78;2.60;;;22.00;58.40;;;;;;10061146;28;20036;-61
2023/06/15 01:10:30;;;;;;;2.55;2.17;;;22.00;58.60;;;;;;10059105;28;20103;-62
2023/06/15 01:15:22;;;;;;;2.37;2.17;;;21.80;59.00;;;;;;10046924;28;20041;-62
2023/06/15 01:20:24;;;;;;;3.67;2.65;;;21.90;59.00;;;;;;10059693;28;20487;-62
2023/06/15 01:25:29;;;;;;;2.47;2.28;;;21.90;59.00;;;;;;10060417;28;20044;-63
2023/06/15 01:30:20;;;;;;;4.03;2.33;;;21.70;59.30;;;;;;10054925;28;20619;-61
2023/06/15 01:35:11;;;;;;;4.15;2.35;;;21.50;59.80;;;;;;10057502;28;20276;-61
2023/06/15 01:40:02;;;;;;;2.88;2.55;;;21.50;60.60;;;;;;10058579;28;20271;-61
2023/06/15 01:44:55;;;;;;;4.22;2.25;;;21.30;60.30;;;;;;10058605;28;20045;-63
2023/06/15 01:49:46;;;;;;;3.60;2.67;;;21.50;60.30;;;;;;10055592;28;20435;-62
2023/06/15 01:54:37;;;;;;;3.63;2.65;;;21.40;60.40;;;;;;10058069;28;20260;-61
2023/06/15 01:59:27;;;;;;;3.33;2.45;;;21.50;60.30;;;;;;10057733;28;20655;-61
2023/06/15 02:04:18;;;;;;;5.35;2.58;;;21.60;60.20;;;;;;10058400;28;20029;-61
2023/06/15 02:09:08;;;;;;;3.63;2.47;;;21.40;60.60;;;;;;10056798;28;20066;-64
2023/06/15 02:13:59;;;;;;;2.78;2.58;;;21.40;60.80;;;;;;10056360;28;20049;-63
2023/06/15 02:18:51;;;;;;;2.30;2.10;;;21.20;61.10;;;;;;10058411;28;20041;-63
2023/06/15 02:23:41;;;;;;;3.15;2.60;;;20.90;61.80;;;;;;10057802;28;20044;-62
2023/06/15 02:28:32;;;;;;;3.08;2.65;;;20.80;61.90;;;;;;10057175;28;20137;-62
2023/06/15 02:33:25;;;;;;;3.70;2.95;;;20.80;62.30;;;;;;10057645;28;20037;-62
2023/06/15 02:38:16;;;;;;;2.83;2.30;;;20.90;62.00;;;;;;10056948;28;20041;-62
2023/06/15 02:43:06;;;;;;;3.22;2.42;;;21.00;62.00;;;;;;10056790;28;20021;-63
2023/06/15 02:47:58;;;;;;;3.95;3.15;;;21.00;62.00;;;;;;10056252;28;20043;-62
2023/06/15 02:52:49;;;;;;;7.07;2.55;;;20.80;62.20;;;;;;10053393;28;20111;-61
2023/06/15 02:57:41;;;;;;;3.58;2.78;;;20.80;62.60;;;;;;10056045;28;20064;-61
2023/06/15 03:02:32;;;;;;;4.13;2.38;;;20.70;62.70;;;;;;10055574;28;20044;-63
2023/06/15 03:07:22;;;;;;;2.60;2.13;;;20.70;62.80;;;;;;10055234;28;20527;-65
2023/06/15 03:12:13;;;;;;;2.88;2.50;;;20.80;62.80;;;;;;10055113;28;20071;-61
2023/06/15 03:17:08;;;;;;;3.17;2.47;;;20.60;63.00;;;;;;10055440;28;20045;-63
2023/06/15 03:21:58;;;;;;;4.22;2.78;;;20.50;63.20;;;;;;10055288;28;20022;-61
2023/06/15 03:26:49;;;;;;;3.92;2.60;;;20.60;63.10;;;;;;10056618;28;20480;-62
2023/06/15 03:31:44;;;;;;;2.88;2.33;;;20.50;63.30;;;;;;10054998;28;20035;-62
2023/06/15 03:36:35;;;;;;;3.65;2.30;;;20.40;63.50;;;;;;10054905;28;20029;-62
2023/06/15 03:41:30;;;;;;;3.00;2.15;;;20.40;63.60;;;;;;10054533;28;20044;-63
2023/06/15 03:46:20;;;;;;;4.40;2.47;;;20.40;63.70;;;;;;10054667;28;20083;-66
2023/06/15 03:51:12;;;;;;;2.58;2.35;;;20.40;63.80;;;;;;10054487;28;20103;-65
2023/06/15 03:56:03;;;;;;;2.42;2.22;;;20.50;63.80;;;;;;10052390;28;20103;-62
2023/06/15 04:00:56;;;;;;;3.38;2.60;;;20.50;64.00;;;;;;10054664;28;20036;-63
2023/06/15 04:05:48;;;;;;;5.68;2.92;;;20.50;64.00;;;;;;10055256;28;20037;-65
2023/06/15 04:10:39;;;;;;;3.08;2.50;;;20.60;63.90;;;;;;10054348;28;20090;-65
2023/06/15 04:15:30;;;;;;;4.25;2.60;;;20.60;64.10;;;;;;10054420;28;20136;-65
2023/06/15 04:20:21;;;;;;;3.60;2.35;;;20.40;64.30;;;;;;10053520;28;20531;-63
2023/06/15 04:25:12;;;;;;;2.80;2.50;;;20.50;64.50;;;;;;10058096;28;20033;-61
2023/06/15 04:30:03;;;;;;;3.15;2.72;;;20.60;64.20;;;;;;10061391;28;20030;-62
2023/06/15 04:34:54;;;;;;;6.13;2.25;;;20.60;64.50;;;;;;10061989;28;20518;-63
2023/06/15 04:39:45;;;;;;;6.35;2.60;;;20.50;64.70;;;;;;10059934;28;20120;-62
2023/06/15 04:44:35;;;;;;;3.20;2.70;;;20.30;65.10;;;;;;10061360;28;20120;-62
2023/06/15 04:49:26;;;;;;;4.20;2.17;;;20.50;64.80;;;;;;10059278;28;20124;-66
2023/06/15 04:54:17;;;;;;;3.25;2.30;;;20.50;64.80;;;;;;10058764;28;20490;-62
2023/06/15 04:59:07;;;;;;;2.72;2.45;;;20.50;64.90;;;;;;10058777;28;20041;-62
2023/06/15 05:03:58;;;;;;;3.22;2.42;;;20.50;64.90;;;;;;10059960;28;20040;-63
2023/06/15 05:08:49;;;;;;;5.40;2.38;;;20.40;65.20;;;;;;10053740;28;20356;-61
2023/06/15 05:13:39;;;;;;;3.17;2.40;;;20.60;64.80;;;;;;10060458;28;20033;-63
2023/06/15 05:18:30;;;;;;;3.10;2.80;;;20.50;65.30;;;;;;10058872;28;20052;-62
2023/06/15 05:23:21;;;;;;;4.45;2.72;;;20.50;65.20;;;;;;10061907;28;20029;-63
2023/06/15 05:28:12;;;;;;;6.03;2.47;;;20.60;65.40;;;;;;10061393;28;20175;-62
2023/06/15 05:33:02;;;;;;;4.43;2.80;;;20.70;65.30;;;;;;10060301;28;20152;-62
2023/06/15 05:37:53;;;;;;;2.88;2.58;;;20.50;65.80;;;;;;10059870;28;20034;-63
2023/06/15 05:42:44;;;;;;;5.07;2.33;;;20.60;65.80;;;;;;10059554;28;20484;-63
2023/06/15 05:47:35;;;;;;;3.03;2.20;;;20.50;65.90;;;;;;10059462;28;20458;-63
2023/06/15 05:52:25;;;;;;;6.20;2.60;;;20.70;65.80;;;;;;10058439;28;20049;-62
2023/06/15 05:57:16;;;;;;;3.70;2.20;;;20.60;65.80;;;;;;10059546;28;20124;-63
2023/06/15 06:02:07;;;;;;;4.20;2.25;;;20.90;65.40;;;;;;10059015;28;20676;-62
2023/06/15 06:06:58;;;;;;;4.07;2.50;;;21.00;65.30;;;;;;10058453;28;20040;-62
2023/06/15 06:11:49;;;;;;;4.55;2.28;;;20.90;65.50;;;;;;10058242;28;20117;-63
2023/06/15 06:16:40;;;;;;;4.35;2.65;;;20.70;66.20;;;;;;10058092;28;20046;-63
2023/06/15 06:21:32;;;;;;;2.53;2.30;;;20.70;66.20;;;;;;10057735;28;20044;-62
2023/06/15 06:26:22;;;;;;;3.63;2.55;;;20.80;66.10;;;;;;10058378;28;20310;-63
2023/06/15 06:31:13;;;;;;;3.15;2.47;;;21.00;65.90;;;;;;10057147;28;20029;-62
2023/06/15 06:36:08;;;;;;;7.18;3.10;;;21.00;65.70;;;;;;10059487;28;20041;-71
2023/06/15 06:40:58;;;;;;;7.68;2.80;;;21.20;65.40;;;;;;10059003;28;20021;-71
2023/06/15 06:45:49;;;;;;;6.32;2.85;;;21.30;65.30;;;;;;10059799;28;20033;-70
2023/06/15 06:50:40;;;;;;;3.92;2.85;;;21.40;65.30;;;;;;10060441;28;20369;-69
2023/06/15 06:55:30;;;;;;;3.97;2.70;;;21.40;65.40;;;;;;10061977;28;20076;-68
2023/06/15 07:00:21;;;;;;;4.47;2.85;;;21.50;66.00;;;;;;10057500;28;20436;-66
2023/06/15 07:05:11;;;;;;;4.50;3.17;;;21.50;65.20;;;;;;10057058;28;20106;-66
2023/06/15 07:10:02;;;;;;;6.00;3.53;;;21.40;65.60;;;;;;10055582;28;20071;-65
2023/06/15 07:14:53;;;;;;;8.77;2.95;;;21.20;66.20;;;;;;9222471;28;10000770;-69
2023/06/15 07:19:44;;;;;;;3.15;2.58;;;21.40;66.00;;;;;;9198070;28;10000578;-67
2023/06/15 07:24:35;;;;;;;3.78;2.92;;;21.40;65.80;;;;;;10095805;28;20051;-66
2023/06/15 07:29:26;;;;;;;6.13;2.67;;;21.40;65.90;;;;;;10094213;28;20027;-67
2023/06/15 07:34:17;;;;;;;5.28;3.05;;;21.40;65.90;;;;;;10095766;28;20032;-67
2023/06/15 07:39:07;;;;;;;7.57;3.20;;;21.30;66.20;;;;;;10092943;28;20029;-69
2023/06/15 07:43:58;;;;;;;6.20;2.95;;;21.40;66.20;;;;;;10095208;28;20025;-70
2023/06/15 07:48:48;;;;;;;3.30;2.83;;;21.60;65.80;;;;;;10095365;28;20107;-66
2023/06/15 07:53:39;;;;;;;6.53;3.30;;;21.70;65.80;;;;;;10095018;28;20043;-68
2023/06/15 07:58:30;;;;;;;4.82;3.17;;;21.90;65.70;;;;;;10099033;28;20052;-68
2023/06/15 08:03:20;;;;;;;4.20;2.95;;;22.20;65.30;;;;;;10103509;28;20473;-70
2023/06/15 08:08:11;;;;;;;6.78;3.17;;;22.40;64.90;;;;;;10103531;28;20403;-67
2023/06/15 08:13:02;;;;;;;2.75;2.42;;;22.50;64.70;;;;;;10102761;28;20437;-66
2023/06/15 08:17:53;;;;;;;5.57;2.95;;;22.50;64.70;;;;;;10100845;28;20291;-67
2023/06/15 08:22:43;;;;;;;4.15;3.20;;;22.50;64.90;;;;;;10101354;28;20238;-68
2023/06/15 08:27:34;;;;;;;5.80;3.25;;;22.60;64.90;;;;;;10100004;28;20093;-68
2023/06/15 08:32:25;;;;;;;5.68;3.25;;;22.50;64.90;;;;;;10101910;28;20509;-68
2023/06/15 08:37:15;;;;;;;4.00;3.03;;;22.50;64.80;;;;;;10103103;28;20391;-67
2023/06/15 08:42:09;;;;;;;6.55;3.10;;;22.60;64.70;;;;;;10101950;28;20020;-68
2023/06/15 08:47:03;;;;;;;6.50;3.35;;;22.70;64.50;;;;;;10102099;28;20041;-69
2023/06/15 08:51:56;;;;;;;5.70;2.43;;;22.70;64.50;;;;;;10100660;28;20116;-69
2023/06/15 08:56:47;;;;;;;5.95;3.42;;;22.90;64.10;;;;;;10101542;28;20080;-69
2023/06/15 09:01:43;;;;;;;6.22;3.53;;;23.20;63.90;;;;;;10100321;28;20044;-69
2023/06/15 09:06:34;;;;;;;5.25;3.38;;;23.20;64.00;;;;;;10106937;28;20095;-70
2023/06/15 09:11:25;;;;;;;4.32;2.78;;;23.50;64.40;;;;;;10097719;28;20079;-73
2023/06/15 09:16:15;;;;;;;9.05;3.30;;;23.60;63.50;;;;;;10101359;28;20052;-65
2023/06/15 09:21:11;;;;;;;4.97;3.28;;;23.60;63.40;;;;;;10101423;28;20123;-69
2023/06/15 09:26:02;;;;;;;5.68;3.30;;;23.60;63.50;;;;;;10101490;28;20032;-69
2023/06/15 09:30:55;;;;;;;5.18;3.08;;;23.70;63.30;;;;;;10098643;28;20047;-71
2023/06/15 09:36:03;;;;;;;4.55;3.42;;;23.90;63.60;;;;;;10099499;28;20045;-69
2023/06/15 09:40:54;;;;;;;3.67;3.10;;;24.20;62.50;;;;;;10098408;28;20037;-70
2023/06/15 09:45:53;;;;;;;6.10;3.17;;;24.30;62.20;;;;;;10108772;28;20024;-68
2023/06/15 09:50:49;;;;;;;4.82;3.20;;;24.30;61.90;;;;;;10104152;28;20036;-72
2023/06/15 09:55:43;;;;;;;4.22;2.65;;;24.40;61.60;;;;;;10104686;28;20047;-72
2023/06/15 10:05:36;;;;;;;3.67;2.63;;;24.60;61.00;;;;;;9902061;28;20160;-61
2023/06/15 10:10:29;;;;;;;4.80;2.80;;;24.70;60.60;;;;;;9895551;28;20028;-59
2023/06/15 10:15:23;;;;;;;3.17;2.78;;;24.80;60.40;;;;;;9896276;28;20042;-60
2023/06/15 10:20:18;;;;;;;3.93;2.77;;;24.70;60.20;;;;;;9896506;28;20063;-59
2023/06/15 10:25:09;;;;;;;6.07;3.67;;;24.70;60.00;;;;;;9896355;28;20730;-63
2023/06/15 10:30:26;;;;;;;4.68;3.03;;;25.10;59.80;;;;;;9896824;28;20042;-60
2023/06/15 10:35:32;;;;;;;4.95;2.85;;;25.40;59.40;;;;;;9898435;28;20055;-63
2023/06/15 10:40:34;;;;;;;5.18;2.70;;;25.30;59.40;;;;;;9897079;28;20118;-59
2023/06/15 10:45:31;;;;;;;6.03;3.25;;;25.30;59.20;;;;;;9896569;29;20035;-61
2023/06/15 10:50:22;;;;;;;3.85;2.40;;;25.30;59.10;;;;;;9895544;28;20023;-60
2023/06/15 10:55:15;;;;;;;3.67;2.80;;;25.40;59.00;;;;;;9895774;28;20043;-60
2023/06/15 11:00:08;;;;;;;4.40;3.22;;;25.40;58.60;;;;;;9903149;28;20028;-58
2023/06/15 11:05:12;;;;;;;3.92;2.95;;;25.60;58.20;;;;;;9900359;28;20054;-60
2023/06/15 11:10:31;;;;;;;3.63;2.95;;;25.60;57.50;;;;;;9896267;28;20232;-61
2023/06/15 11:15:30;;;;;;;4.88;3.20;;;25.70;57.00;;;;;;9882017;28;20066;-61
2023/06/15 11:20:39;;;;;;;5.18;3.45;;;25.70;57.00;;;;;;9886531;28;20039;-62
2023/06/15 11:25:29;;;;;;;7.78;3.35;;;25.80;56.70;;;;;;9890553;28;20043;-60
2023/06/15 11:30:21;;;;;;;4.00;2.92;;;25.90;56.50;;;;;;9882781;28;20032;-58
2023/06/15 11:35:11;;;;;;;3.70;2.95;;;26.20;56.30;;;;;;9881264;28;20445;-63
2023/06/15 11:40:06;;;;;;;5.78;2.80;;;26.20;55.90;;;;;;9886869;28;20020;-60
2023/06/15 11:44:57;;;;;;;4.63;2.50;;;26.40;55.60;;;;;;9882531;28;20143;-59
2023/06/15 11:49:47;;;;;;;3.40;2.90;;;26.70;55.10;;;;;;9877226;28;20066;-59
2023/06/15 11:54:38;;;;;;;3.50;2.92;;;26.80;54.80;;;;;;9890978;28;20036;-59
2023/06/15 11:59:29;;;;;;;3.42;2.50;;;26.70;54.40;;;;;;9898840;28;20130;-60
2023/06/15 12:04:20;;;;;;;3.25;2.72;;;26.80;54.10;;;;;;9898203;28;20479;-59
2023/06/15 12:09:10;;;;;;;4.70;2.75;;;27.00;54.10;;;;;;9893480;28;20562;-59
2023/06/15 12:14:05;;;;;;;4.75;2.83;;;27.30;53.80;;;;;;9893562;28;20020;-58
2023/06/15 12:19:00;;;;;;;2.55;2.35;;;27.60;53.40;;;;;;9893791;28;20521;-60
2023/06/15 12:23:51;;;;;;;4.38;3.13;;;27.80;53.30;;;;;;9883543;28;20501;-59
2023/06/15 12:28:41;;;;;;;3.58;2.97;;;28.30;53.10;;;;;;9893158;28;20028;-60
2023/06/15 12:33:39;;;;;;;2.97;2.58;;;28.70;52.90;;;;;;9893709;28;20448;-60
2023/06/15 12:38:30;;;;;;;2.40;2.17;;;29.20;52.70;;;;;;9892203;28;20035;-61
2023/06/15 12:43:21;;;;;;;2.70;2.47;;;29.70;52.50;;;;;;9893216;28;20031;-61
2023/06/15 12:48:13;;;;;;;3.25;2.95;;;29.80;52.30;;;;;;9899133;28;20444;-60
2023/06/15 12:53:03;;;;;;;5.32;2.72;;;30.40;52.10;;;;;;9899325;28;20020;-60
2023/06/15 12:57:55;;;;;;;3.10;2.80;;;31.60;51.50;;;;;;9907475;28;20043;-60
2023/06/15 13:02:46;;;;;;;3.93;2.60;;;32.80;50.90;;;;;;9903844;28;20051;-58
2023/06/15 13:07:37;;;;;;;3.88;2.80;;;31.10;50.50;;;;;;9898600;28;20038;-60
2023/06/15 13:12:28;;;;;;;3.58;3.00;;;32.10;49.70;;;;;;9899032;28;20032;-59
2023/06/15 13:17:19;;;;;;;5.30;2.37;;;33.10;48.60;;;;;;9887355;28;20521;-64
2023/06/15 13:22:09;;;;;;;4.35;2.60;;;34.10;47.90;;;;;;9898449;28;20031;-61
2023/06/15 13:27:02;;;;;;;2.70;2.30;;;34.50;47.20;;;;;;9899140;28;20058;-64
2023/06/15 13:31:52;;;;;;;3.40;2.83;;;34.60;46.90;;;;;;9898228;28;20708;-64
2023/06/15 13:36:43;;;;;;;2.58;2.38;;;35.20;46.30;;;;;;9898513;28;20043;-62
2023/06/15 13:41:34;;;;;;;3.90;2.72;;;35.50;45.90;;;;;;9897871;28;20032;-63
2023/06/15 13:46:25;;;;;;;4.25;2.72;;;35.30;45.60;;;;;;9886822;28;20042;-60
2023/06/15 13:51:16;;;;;;;;;;;35.60;45.10;;;;;;9898575;28;20457;-59
2023/06/15 13:56:06;;;;;;;6.53;2.73;;;35.50;43.80;;;;;;9896267;28;20009;-58
2023/06/15 14:00:57;;;;;;;;;;;36.30;44.10;;;;;;9910104;28;20039;-60
2023/06/15 14:05:48;;;;;;;6.60;2.90;;;36.60;43.00;;;;;;9897731;28;19937;-59
2023/06/15 14:10:39;;;;;;;;;;;36.80;43.40;;;;;;9897399;29;20028;-60
2023/06/15 14:15:29;;;;;;;6.53;2.40;;;36.00;42.10;;;;;;9874589;28;20052;-64
2023/06/15 14:20:20;;;;;;;;;;;36.40;42.60;;;;;;9897269;28;20485;-59
2023/06/15 14:25:11;;;;;;;2.67;2.20;;;37.20;41.70;;;;;;9896880;28;19906;-60
2023/06/15 14:30:03;;;;;;;4.35;3.33;;;37.90;41.60;;;;;;9896413;28;20477;-61
2023/06/15 14:34:53;;;;;;;3.47;2.78;;;38.20;41.10;;;;;;9896341;28;20031;-60
2023/06/15 14:39:44;;;;;;;2.83;2.63;;;38.30;40.50;;;;;;9896329;28;20074;-59
2023/06/15 14:44:35;;;;;;;4.20;2.60;;;37.50;40.70;;;;;;9896610;29;20178;-60
2023/06/15 14:49:25;;;;;;;2.42;2.13;;;36.70;40.80;;;;;;9895667;28;20035;-60
2023/06/15 14:54:16;;;;;;;5.07;2.97;;;36.20;40.60;;;;;;9889536;28;20035;-61
2023/06/15 14:59:07;;;;;;;2.50;2.30;;;36.80;40.10;;;;;;9903342;28;20378;-62
2023/06/15 15:03:58;;;;;;;2.88;2.38;;;34.60;41.10;;;;;;9900604;28;20271;-60
2023/06/15 15:08:51;;;;;;;3.25;2.63;;;32.70;42.20;;;;;;9894386;28;20610;-64
2023/06/15 15:13:41;;;;;;;3.05;2.70;;;34.70;40.80;;;;;;9886882;28;20081;-62
2023/06/15 15:18:32;;;;;;;3.20;2.65;;;35.80;40.60;;;;;;9893534;28;20055;-59
2023/06/15 15:23:22;;;;;;;;;;;37.10;40.20;;;;;;9895312;28;20043;-60
2023/06/15 15:28:13;;;;;;;3.43;3.00;;;36.80;39.90;;;;;;9893371;28;20338;-59
2023/06/15 15:33:04;;;;;;;;;;;36.70;40.70;;;;;;9895457;28;20026;-61
2023/06/15 15:37:54;;;;;;;4.07;2.47;;;37.70;39.70;;;;;;9894054;28;19922;-59
2023/06/15 15:42:45;;;;;;;;;;;37.10;40.20;;;;;;9894723;28;20035;-59
2023/06/15 15:47:35;;;;;;;2.63;2.40;;;37.90;39.80;;;;;;9894562;28;19910;-59
2023/06/15 15:52:26;;;;;;;;;;;37.70;39.90;;;;;;9893913;28;20410;-60
2023/06/15 15:57:16;;;;;;;;;;;38.90;39.20;;;;;;9899266;28;19925;-61
2023/06/15 16:02:07;;;;;;;;;;;38.80;39.30;;;;;;9901497;28;20455;-63
2023/06/15 16:06:58;;;;;;;;;;;38.70;39.20;;;;;;9893424;29;19922;-65
2023/06/15 16:11:49;;;;;;;;;;;40.20;38.80;;;;;;9894566;29;19911;-62
2023/06/15 16:16:39;;;;;;;;;;;40.80;38.20;;;;;;9883606;28;19919;-61
2023/06/15 16:21:30;;;;;;;;;;;41.30;38.00;;;;;;9897580;28;19937;-63
2023/06/15 16:26:21;;;;;;;;;;;42.50;37.80;;;;;;9900817;28;20364;-63
2023/06/15 16:31:11;;;;;;;;;;;44.10;37.10;;;;;;9900782;28;19964;-62
2023/06/15 16:36:02;;;;;;;;;;;45.10;36.80;;;;;;9900437;28;20009;-62
2023/06/15 16:40:52;;;;;;;;;;;44.70;36.60;;;;;;9892281;28;19945;-63
2023/06/15 16:45:43;;;;;;;;;;;44.30;37.10;;;;;;9886675;28;19915;-61
2023/06/15 16:50:33;;;;;;;;;;;43.90;37.40;;;;;;9881397;28;19911;-61
2023/06/15 16:55:24;;;;;;;;;;;44.10;37.30;;;;;;9874815;28;19962;-61
2023/06/15 17:00:14;;;;;;;;;;;44.20;37.90;;;;;;9889350;28;19914;-61
2023/06/15 17:05:05;;;;;;;;;;;44.00;37.10;;;;;;9888807;28;19923;-60
2023/06/15 17:09:56;;;;;;;;;;;43.70;37.40;;;;;;9888335;28;20287;-60
2023/06/15 17:14:46;;;;;;;;;;;42.40;37.30;;;;;;9883147;28;19977;-60
2023/06/15 17:19:37;;;;;;;;;;;40.40;38.90;;;;;;9872713;28;19910;-62
2023/06/15 17:24:28;;;;;;;;;;;39.20;39.20;;;;;;9882828;28;19920;-61
2023/06/15 17:29:18;;;;;;;;;;;39.70;38.60;;;;;;9877658;28;19910;-62
2023/06/15 17:34:09;;;;;;;;;;;39.30;38.80;;;;;;9895579;28;19924;-59
2023/06/15 17:39:00;;;;;;;;;;;39.30;38.60;;;;;;9896506;28;20013;-60
2023/06/15 17:43:51;;;;;;;;;;;39.30;38.60;;;;;;9894812;28;20376;-61
2023/06/15 17:48:41;;;;;;;;;;;39.00;38.90;;;;;;9898053;28;20417;-61
2023/06/15 17:53:32;;;;;;;;;;;38.30;39.40;;;;;;9898149;28;19914;-62
2023/06/15 17:58:23;;;;;;;;;;;37.80;39.60;;;;;;9917325;28;20108;-61
2023/06/15 18:03:14;;;;;;;;;;;37.00;40.00;;;;;;9901129;28;19925;-61
2023/06/15 18:08:04;;;;;;;;;;;35.30;40.50;;;;;;9928819;28;20210;-60
2023/06/15 18:12:55;;;;;;;;;;;32.80;41.80;;;;;;9898057;28;19914;-63
2023/06/15 18:17:45;;;;;;;;;;;31.60;42.10;;;;;;9896983;28;19929;-63
2023/06/15 18:22:36;;;;;;;;;;;31.00;41.90;;;;;;9896655;28;19911;-62
2023/06/15 18:27:28;;;;;;;;;;;30.50;41.90;;;;;;9897429;28;19910;-64
2023/06/15 18:32:18;;;;;;;;;;;30.20;41.90;;;;;;9896669;28;20320;-65
2023/06/15 18:37:09;;;;;;;;;;;29.80;42.40;;;;;;9896531;28;19918;-60
2023/06/15 18:42:02;;;;;;;;;;;29.70;42.40;;;;;;9893999;28;19918;-60
2023/06/15 18:46:52;;;;;;;;;;;29.80;42.40;;;;;;9896573;28;20024;-60
2023/06/15 18:51:43;;;;;;;;;;;29.80;42.50;;;;;;9896862;28;19997;-61
2023/06/15 18:56:35;;;;;;;;;;;29.60;42.60;;;;;;9896326;28;19929;-60
2023/06/15 19:01:25;;;;;;;;;;;29.60;42.70;;;;;;9906752;28;19922;-60
2023/06/15 19:06:16;;;;;;;;;;;29.60;42.60;;;;;;9896972;28;19911;-61
2023/06/15 19:11:06;;;;;;;;;;;29.60;42.70;;;;;;9895576;29;19910;-61
2023/06/15 19:15:58;;;;;;;;;;;29.50;42.80;;;;;;9895965;28;20037;-61
2023/06/15 19:20:50;;;;;;;;;;;29.20;43.40;;;;;;9892274;28;20208;-60
2023/06/15 19:25:41;;;;;;;;;;;28.90;43.60;;;;;;9895990;28;19936;-61
2023/06/15 19:30:31;;;;;;;;;;;28.80;43.60;;;;;;9895188;28;19936;-60
2023/06/15 19:35:22;;;;;;;;;;;28.70;43.80;;;;;;9895349;28;20033;-60
2023/06/15 19:40:13;;;;;;;;;;;28.70;44.10;;;;;;9894467;28;19921;-60
2023/06/15 19:45:04;;;;;;;;;;;28.60;44.10;;;;;;9892784;28;20302;-62
2023/06/15 19:49:55;;;;;;;;;;;28.50;44.40;;;;;;9892007;28;20013;-61
2023/06/15 19:54:45;;;;;;;;;;;28.40;44.50;;;;;;9896738;28;20292;-61
2023/06/15 19:59:36;;;;;;;;;;;28.30;44.70;;;;;;9903875;28;20312;-60
2023/06/15 20:04:27;;;;;;;;;;;28.00;45.10;;;;;;9898506;28;19971;-61
2023/06/15 20:09:17;;;;;;;;;;;28.20;45.10;;;;;;9957752;28;20616;-59
2023/06/15 20:14:08;;;;;;;;;;;28.10;45.10;;;;;;9903121;28;20001;-59
2023/06/15 20:18:59;;;;;;;;;;;28.10;45.20;;;;;;9910305;28;20166;-58
2023/06/15 20:23:49;;;;;;;;;;;28.10;45.30;;;;;;9890792;28;20368;-60
2023/06/15 20:28:40;;;;;;;;;;;28.00;45.40;;;;;;9901027;28;19914;-61
2023/06/15 20:33:31;;;;;;;;;;;27.80;45.80;;;;;;9900789;28;19915;-60
2023/06/15 20:38:24;;;;;;;;;;;27.80;45.80;;;;;;9899764;28;19922;-60
2023/06/15 20:43:14;;;;;;;;;;;27.70;46.00;;;;;;9900821;29;19910;-61
2023/06/15 20:48:05;;;;;;;;;;;27.70;46.00;;;;;;9900189;28;20303;-60
2023/06/15 20:53:05;;;;;;;;;;;27.70;46.10;;;;;;9900590;28;19914;-61
2023/06/15 20:57:55;;;;;;;;;;;27.50;46.30;;;;;;9907219;28;19922;-61
2023/06/15 21:02:46;;;;;;;;;;;27.30;46.50;;;;;;9905643;28;19918;-60
2023/06/15 21:07:36;;;;;;;;;;;27.30;46.70;;;;;;9898669;28;19910;-60
2023/06/15 21:12:27;;;;;;;;;;;27.20;46.80;;;;;;9899232;28;20281;-59
2023/06/15 21:17:17;;;;;;;;;;;27.00;47.00;;;;;;9899699;28;20406;-60
2023/06/15 21:22:08;;;;;;;;;;;27.10;47.10;;;;;;9898761;28;19918;-61
2023/06/15 21:26:58;;;;;;;;;;;26.90;47.20;;;;;;9899559;28;20384;-62
2023/06/15 21:31:49;;;;;;;;;;;26.80;47.40;;;;;;9899039;28;20288;-59
2023/06/15 21:36:39;;;;;;;;;;;26.80;47.40;;;;;;9898825;28;19925;-60
2023/06/15 21:41:35;;;;;;;;;;;26.60;47.50;;;;;;9910145;28;19914;-58
2023/06/15 21:46:26;;;;;;;;;;;26.50;47.60;;;;;;9898107;28;19914;-60
2023/06/15 21:51:19;;;;;;;;;;;26.50;47.70;;;;;;9899089;28;19930;-62
2023/06/15 21:56:10;;;;;;;;;;;26.60;47.60;;;;;;9897422;28;19915;-61
2023/06/15 22:01:00;;;;;;;;;;;26.60;47.70;;;;;;9903017;28;19913;-60
2023/06/15 22:05:51;;;;;;;;;;;26.30;48.00;;;;;;9896772;28;20403;-60
2023/06/15 22:10:41;;;;;;;;;;;26.30;48.00;;;;;;9898040;29;19925;-62
2023/06/15 22:15:32;;;;;;;;;;;26.10;48.10;;;;;;9897966;28;19926;-61
2023/06/15 22:20:24;;;;;;;;;;;26.20;48.40;;;;;;9896870;28;20214;-60
2023/06/15 22:25:14;;;;;;;;;;;26.00;48.60;;;;;;9897834;28;19911;-60
2023/06/15 22:30:05;;;;;;;;;;;26.00;48.40;;;;;;9896667;28;19915;-59
2023/06/15 22:34:55;;;;;;;;;;;25.90;48.70;;;;;;9896850;28;20061;-59
2023/06/15 22:39:46;;;;;;;;;;;25.70;48.60;;;;;;9898812;28;20284;-60
2023/06/15 22:44:37;;;;;;;;;;;25.60;48.90;;;;;;9897301;29;20011;-60
2023/06/15 22:49:27;;;;;;;;;;;25.60;49.00;;;;;;9929850;28;19917;-60
2023/06/15 22:54:18;;;;;;;;;;;25.60;49.10;;;;;;9896646;28;19957;-60
2023/06/15 22:59:08;;;;;;;;;;;25.40;49.30;;;;;;9899761;28;19926;-62
2023/06/15 23:03:59;;;;;;;;;;;25.40;49.40;;;;;;9901180;28;20335;-59
2023/06/15 23:08:52;;;;;;;;;;;25.20;49.60;;;;;;9896054;28;19910;-60
2023/06/15 23:13:52;;;;;;;;;;;25.20;49.90;;;;;;9887297;28;19914;-61
2023/06/15 23:18:44;;;;;;;;;;;25.30;49.80;;;;;;9895504;28;19922;-61
2023/06/15 23:23:37;;;;;;;;;;;25.00;50.00;;;;;;9895488;28;19936;-60
2023/06/15 23:28:27;;;;;;;;;;;25.00;50.10;;;;;;9895222;28;19911;-60
2023/06/15 23:33:18;;;;;;;;;;;25.00;50.20;;;;;;9897303;28;20462;-60
2023/06/15 23:38:09;;;;;;;;;;;24.90;50.40;;;;;;9896138;28;20017;-58
2023/06/15 23:42:59;;;;;;;;;;;24.70;50.80;;;;;;9895232;28;19911;-58
2023/06/15 23:47:50;;;;;;;;;;;24.70;50.90;;;;;;9894487;28;19918;-60
2023/06/15 23:52:40;;;;;;;;;;;24.60;51.00;;;;;;9895100;28;19916;-58
2023/06/15 23:57:31;;;;;;;;;;;24.70;51.00;;;;;;9901395;28;20387;-59
